Time;durP1;ratioP1;P1;durP2;ratioP2;P2;SDS_P1;SDS_P2;PMS_P1;PMS_P2;Temp;Humidity;BMP_temperature;BMP_pressure;BME280_temperature;BME280_humidity;BME280_pressure;Samples;Min_cycle;Max_cycle;Signal;HPM_P1;HPM_P2
2024/01/20 00:02:16;;;;;;;21.93;13.93;;;;;;;;;;5111590;28;20310;-82
2024/01/20 00:04:43;;;;;;;21.40;13.50;;;;;;;;;;5111942;28;20731;-82
2024/01/20 00:07:11;;;;;;;26.03;13.87;;;;;;;;;;5112238;28;20208;-82
2024/01/20 00:09:39;;;;;;;24.03;15.90;;;;;;;;;;5112353;28;20217;-82
2024/01/20 00:12:07;;;;;;;24.30;15.07;;;;;;;;;;5111483;28;20747;-81
2024/01/20 00:14:34;;;;;;;27.80;15.90;;;;;;;;;;5111883;28;20233;-81
2024/01/20 00:17:01;;;;;;;22.47;15.43;;;;;;;;;;5111828;28;20302;-81
2024/01/20 00:19:29;;;;;;;22.80;15.10;;;;;;;;;;5111770;28;20781;-81
2024/01/20 00:21:56;;;;;;;23.43;15.20;;;;;;;;;;5111252;28;20313;-81
2024/01/20 00:24:23;;;;;;;26.17;15.67;;;;;;;;;;5111348;28;20698;-81
2024/01/20 00:26:52;;;;;;;25.07;15.53;;;;;;;;;;5111625;28;20196;-81
2024/01/20 00:29:19;;;;;;;24.13;15.93;;;;;;;;;;5112175;28;20195;-81
2024/01/20 00:31:46;;;;;;;31.40;18.43;;;;;;;;;;5111421;28;20246;-81
2024/01/20 00:34:13;;;;;;;31.83;18.90;;;;;;;;;;5111945;28;20190;-81
2024/01/20 00:36:41;;;;;;;38.77;21.57;;;;;;;;;;5111751;27;20569;-82
2024/01/20 00:39:08;;;;;;;41.50;22.27;;;;;;;;;;5111524;28;20536;-82
2024/01/20 00:41:35;;;;;;;32.87;20.77;;;;;;;;;;5111735;28;20660;-82
2024/01/20 00:44:04;;;;;;;34.00;20.07;;;;;;;;;;5111219;28;20207;-81
2024/01/20 00:46:32;;;;;;;32.80;20.17;;;;;;;;;;5111843;28;20202;-82
2024/01/20 00:48:59;;;;;;;32.77;18.90;;;;;;;;;;5111501;28;20199;-81
2024/01/20 00:51:26;;;;;;;32.13;18.47;;;;;;;;;;5111665;28;20194;-81
2024/01/20 00:53:53;;;;;;;33.53;18.93;;;;;;;;;;5111360;28;20233;-81
2024/01/20 00:56:20;;;;;;;47.13;23.83;;;;;;;;;;5111625;28;20530;-82
2024/01/20 00:58:47;;;;;;;39.33;21.50;;;;;;;;;;5111483;28;20198;-82
2024/01/20 01:01:16;;;;;;;37.07;19.83;;;;;;;;;;5111213;28;20293;-81
2024/01/20 01:03:43;;;;;;;30.43;17.30;;;;;;;;;;5111234;28;20334;-82
2024/01/20 01:06:10;;;;;;;26.90;16.27;;;;;;;;;;5111000;28;20239;-80
2024/01/20 01:08:38;;;;;;;23.33;15.20;;;;;;;;;;5115457;28;20200;-82
2024/01/20 01:11:05;;;;;;;31.87;17.10;;;;;;;;;;5115395;28;20202;-81
2024/01/20 01:13:35;;;;;;;38.83;22.70;;;;;;;;;;5114990;28;20227;-82
2024/01/20 01:16:02;;;;;;;46.83;27.53;;;;;;;;;;5116172;28;20198;-81
2024/01/20 01:18:31;;;;;;;44.43;26.00;;;;;;;;;;5115386;28;20223;-81
2024/01/20 01:20:58;;;;;;;45.60;26.57;;;;;;;;;;5115547;28;20242;-81
2024/01/20 01:23:25;;;;;;;41.07;25.80;;;;;;;;;;5114990;28;20650;-82
2024/01/20 01:25:53;;;;;;;38.93;23.77;;;;;;;;;;5115673;28;20714;-81
2024/01/20 01:28:21;;;;;;;27.33;17.57;;;;;;;;;;5114868;28;20194;-81
2024/01/20 01:30:49;;;;;;;27.13;16.40;;;;;;;;;;5114686;28;20692;-82
2024/01/20 01:33:16;;;;;;;24.50;16.33;;;;;;;;;;5115018;28;20226;-82
2024/01/20 01:35:44;;;;;;;29.37;15.53;;;;;;;;;;5114911;28;20287;-82
2024/01/20 01:38:12;;;;;;;26.57;17.40;;;;;;;;;;5115560;28;20572;-82
2024/01/20 01:40:39;;;;;;;26.97;17.43;;;;;;;;;;5114994;28;20275;-82
2024/01/20 01:43:06;;;;;;;26.40;16.87;;;;;;;;;;5114647;28;20711;-82
2024/01/20 01:45:34;;;;;;;24.10;16.13;;;;;;;;;;5115134;28;20289;-81
2024/01/20 01:48:01;;;;;;;27.43;15.43;;;;;;;;;;5115167;28;20204;-82
2024/01/20 01:50:29;;;;;;;23.63;15.23;;;;;;;;;;5114755;28;20277;-82
2024/01/20 01:52:58;;;;;;;25.17;15.70;;;;;;;;;;5114842;28;20267;-82
2024/01/20 01:55:26;;;;;;;24.60;15.03;;;;;;;;;;5114463;28;20616;-82
2024/01/20 01:57:53;;;;;;;22.23;14.40;;;;;;;;;;5114722;28;20199;-82
2024/01/20 02:00:21;;;;;;;23.10;13.67;;;;;;;;;;5114735;28;20198;-82
2024/01/20 02:02:48;;;;;;;23.70;14.10;;;;;;;;;;5114623;28;20322;-81
2024/01/20 02:05:15;;;;;;;22.10;14.30;;;;;;;;;;5114066;28;20244;-82
2024/01/20 02:07:44;;;;;;;23.20;13.67;;;;;;;;;;5114815;28;20283;-81
2024/01/20 02:10:13;;;;;;;21.17;13.43;;;;;;;;;;5114912;28;20224;-81
2024/01/20 02:12:41;;;;;;;25.53;14.50;;;;;;;;;;5113653;28;20225;-82
2024/01/20 02:15:09;;;;;;;21.10;13.97;;;;;;;;;;5114499;28;20205;-82
2024/01/20 02:17:36;;;;;;;21.77;13.67;;;;;;;;;;5114844;28;20283;-81
2024/01/20 02:20:04;;;;;;;19.37;12.60;;;;;;;;;;5113979;28;20231;-81
2024/01/20 02:22:32;;;;;;;20.33;12.97;;;;;;;;;;5110117;28;20342;-80
2024/01/20 02:24:59;;;;;;;24.30;13.13;;;;;;;;;;5103999;28;20289;-82
2024/01/20 02:27:26;;;;;;;21.63;12.90;;;;;;;;;;5093532;28;20277;-81
2024/01/20 02:29:54;;;;;;;21.27;12.60;;;;;;;;;;5093689;28;20316;-81
2024/01/20 02:32:21;;;;;;;20.80;12.53;;;;;;;;;;5094219;28;20278;-82
2024/01/20 02:34:48;;;;;;;22.30;12.93;;;;;;;;;;5093284;28;20195;-81
2024/01/20 02:37:16;;;;;;;20.77;12.27;;;;;;;;;;5106849;28;20194;-81
2024/01/20 02:39:44;;;;;;;21.50;12.10;;;;;;;;;;5107406;28;20697;-82
2024/01/20 02:42:11;;;;;;;16.93;11.60;;;;;;;;;;5102683;28;20203;-82
2024/01/20 02:44:39;;;;;;;19.87;11.93;;;;;;;;;;5092648;28;20272;-81
2024/01/20 02:47:06;;;;;;;20.10;11.97;;;;;;;;;;5093536;28;20293;-82
2024/01/20 02:49:34;;;;;;;18.37;12.33;;;;;;;;;;5093576;28;20214;-82
2024/01/20 02:52:01;;;;;;;20.70;12.27;;;;;;;;;;5093815;28;20221;-81
2024/01/20 02:54:28;;;;;;;21.17;13.83;;;;;;;;;;5092862;28;20202;-82
2024/01/20 02:56:57;;;;;;;22.40;13.87;;;;;;;;;;5092905;28;20195;-81
2024/01/20 02:59:24;;;;;;;23.13;13.57;;;;;;;;;;5092840;28;20201;-82
2024/01/20 03:01:51;;;;;;;23.43;14.47;;;;;;;;;;5092617;28;20201;-80
2024/01/20 03:04:19;;;;;;;23.97;14.00;;;;;;;;;;5092979;28;20236;-82
2024/01/20 03:06:46;;;;;;;23.70;13.70;;;;;;;;;;5093211;28;20206;-81
2024/01/20 03:09:14;;;;;;;20.97;14.27;;;;;;;;;;5092406;28;20278;-81
2024/01/20 03:11:42;;;;;;;22.63;13.53;;;;;;;;;;5092995;28;20248;-82
2024/01/20 03:14:11;;;;;;;21.77;13.60;;;;;;;;;;5092562;28;20228;-82
2024/01/20 03:16:38;;;;;;;20.50;13.33;;;;;;;;;;5092849;28;20308;-82
2024/01/20 03:19:06;;;;;;;22.40;13.93;;;;;;;;;;5092703;28;20232;-80
2024/01/20 03:21:34;;;;;;;21.30;12.37;;;;;;;;;;5092855;28;20202;-80
2024/01/20 03:24:01;;;;;;;19.30;12.77;;;;;;;;;;5091910;28;20606;-82
2024/01/20 03:26:28;;;;;;;20.23;12.83;;;;;;;;;;5092694;28;20280;-82
2024/01/20 03:28:56;;;;;;;20.40;13.07;;;;;;;;;;5092017;28;20195;-81
2024/01/20 03:31:25;;;;;;;22.83;12.40;;;;;;;;;;5090888;28;20282;-81
2024/01/20 03:33:52;;;;;;;17.97;11.87;;;;;;;;;;5091239;28;20293;-82
2024/01/20 03:36:20;;;;;;;20.07;11.70;;;;;;;;;;5093356;28;20199;-82
2024/01/20 03:38:47;;;;;;;17.93;11.43;;;;;;;;;;5101938;28;20275;-82
2024/01/20 03:41:14;;;;;;;20.17;12.17;;;;;;;;;;5091469;28;20234;-82
2024/01/20 03:43:41;;;;;;;17.67;12.00;;;;;;;;;;5092228;28;20254;-82
2024/01/20 03:46:08;;;;;;;21.07;12.53;;;;;;;;;;5091992;28;20285;-81
2024/01/20 03:48:37;;;;;;;20.33;13.00;;;;;;;;;;5092225;28;20212;-81
2024/01/20 03:51:04;;;;;;;19.37;12.30;;;;;;;;;;5092118;28;20278;-81
2024/01/20 03:53:31;;;;;;;23.37;13.17;;;;;;;;;;5091886;28;20191;-81
2024/01/20 03:55:59;;;;;;;19.27;12.30;;;;;;;;;;5091693;28;20713;-82
2024/01/20 03:58:26;;;;;;;20.57;12.80;;;;;;;;;;5091936;28;20201;-81
2024/01/20 04:00:53;;;;;;;22.43;12.77;;;;;;;;;;5092316;28;20198;-82
2024/01/20 04:03:20;;;;;;;21.77;12.73;;;;;;;;;;5091826;28;20223;-81
2024/01/20 04:05:49;;;;;;;22.87;12.50;;;;;;;;;;5091999;28;20282;-81
2024/01/20 04:08:16;;;;;;;21.70;14.23;;;;;;;;;;5091308;28;20286;-81
2024/01/20 04:10:43;;;;;;;20.57;14.00;;;;;;;;;;5092107;28;20323;-82
2024/01/20 04:13:11;;;;;;;25.00;14.90;;;;;;;;;;5091918;28;20228;-81
2024/01/20 04:15:38;;;;;;;22.27;15.50;;;;;;;;;;5091404;28;20275;-80
2024/01/20 04:18:05;;;;;;;25.77;17.17;;;;;;;;;;5091710;28;20628;-82
2024/01/20 04:20:32;;;;;;;29.43;17.20;;;;;;;;;;5091433;28;20218;-81
2024/01/20 04:23:01;;;;;;;25.03;16.57;;;;;;;;;;5091460;28;20226;-81
2024/01/20 04:25:29;;;;;;;27.60;17.47;;;;;;;;;;5091284;28;20294;-80
2024/01/20 04:27:56;;;;;;;25.50;17.57;;;;;;;;;;5091779;28;20202;-80
2024/01/20 04:30:23;;;;;;;29.33;19.27;;;;;;;;;;5091607;28;20293;-81
2024/01/20 04:32:50;;;;;;;28.10;19.47;;;;;;;;;;5091464;28;20217;-81
2024/01/20 04:35:18;;;;;;;26.17;17.90;;;;;;;;;;5091470;28;20268;-81
2024/01/20 04:37:45;;;;;;;27.30;18.03;;;;;;;;;;5108634;28;20575;-81
2024/01/20 04:40:14;;;;;;;28.30;18.60;;;;;;;;;;5111603;28;20732;-81
2024/01/20 04:42:41;;;;;;;27.10;18.67;;;;;;;;;;5110180;28;20263;-80
2024/01/20 04:45:09;;;;;;;26.43;17.40;;;;;;;;;;5110912;28;20308;-81
2024/01/20 04:47:37;;;;;;;22.73;15.37;;;;;;;;;;5112134;28;20197;-82
2024/01/20 04:50:04;;;;;;;22.73;15.33;;;;;;;;;;5111155;28;20283;-81
2024/01/20 04:52:31;;;;;;;23.77;15.53;;;;;;;;;;5111025;28;20251;-79
2024/01/20 04:54:58;;;;;;;23.40;16.50;;;;;;;;;;5111766;28;20292;-82
2024/01/20 04:57:27;;;;;;;24.50;15.93;;;;;;;;;;5111645;28;20285;-81
2024/01/20 04:59:54;;;;;;;23.93;14.87;;;;;;;;;;5111304;28;20284;-81
2024/01/20 05:02:21;;;;;;;22.67;14.67;;;;;;;;;;5111449;28;20196;-82
2024/01/20 05:04:48;;;;;;;21.73;14.57;;;;;;;;;;5111074;28;20320;-82
2024/01/20 05:07:16;;;;;;;22.50;14.73;;;;;;;;;;5111287;28;20289;-80
2024/01/20 05:09:43;;;;;;;21.93;14.93;;;;;;;;;;5111523;28;20233;-81
2024/01/20 05:12:10;;;;;;;20.10;14.20;;;;;;;;;;5110874;28;20193;-81
2024/01/20 05:14:39;;;;;;;20.73;14.13;;;;;;;;;;5110747;28;20781;-82
2024/01/20 05:17:06;;;;;;;21.53;15.90;;;;;;;;;;5110773;28;20233;-80
2024/01/20 05:19:33;;;;;;;21.70;14.57;;;;;;;;;;5111527;28;20735;-81
2024/01/20 05:22:00;;;;;;;23.87;13.87;;;;;;;;;;5111235;28;20634;-81
2024/01/20 05:24:27;;;;;;;19.60;13.73;;;;;;;;;;5111073;28;20315;-81
2024/01/20 05:26:54;;;;;;;20.23;14.00;;;;;;;;;;5111314;28;20731;-81
2024/01/20 05:29:22;;;;;;;32.47;18.67;;;;;;;;;;5111145;28;20550;-81
2024/01/20 05:31:50;;;;;;;25.13;14.37;;;;;;;;;;5111490;28;20208;-81
2024/01/20 05:34:17;;;;;;;21.03;13.47;;;;;;;;;;5110758;28;20753;-81
2024/01/20 05:36:45;;;;;;;21.03;13.67;;;;;;;;;;5111048;28;20763;-82
2024/01/20 05:39:12;;;;;;;20.70;13.70;;;;;;;;;;5110581;28;20201;-81
2024/01/20 05:41:39;;;;;;;20.50;13.10;;;;;;;;;;5110883;28;20638;-80
2024/01/20 05:44:06;;;;;;;21.00;13.50;;;;;;;;;;5110973;28;20284;-81
2024/01/20 05:46:33;;;;;;;20.50;13.77;;;;;;;;;;5110719;28;20222;-81
2024/01/20 05:49:02;;;;;;;22.30;13.53;;;;;;;;;;5110873;28;20234;-79
2024/01/20 05:51:29;;;;;;;19.60;13.83;;;;;;;;;;5110800;28;20285;-81
2024/01/20 05:53:56;;;;;;;21.97;14.47;;;;;;;;;;5113108;28;20237;-81
2024/01/20 05:56:24;;;;;;;23.83;15.87;;;;;;;;;;5114407;28;20562;-81
2024/01/20 05:58:51;;;;;;;24.40;14.77;;;;;;;;;;5114861;28;20239;-80
2024/01/20 06:01:19;;;;;;;23.13;14.37;;;;;;;;;;5114596;28;20230;-80
2024/01/20 06:03:46;;;;;;;21.77;14.27;;;;;;;;;;5113539;28;20222;-82
2024/01/20 06:06:14;;;;;;;22.90;14.50;;;;;;;;;;5115117;28;20311;-81
2024/01/20 06:08:42;;;;;;;21.23;14.00;;;;;;;;;;5113997;28;20201;-80
2024/01/20 06:11:10;;;;;;;23.50;13.77;;;;;;;;;;5114417;28;20281;-80
2024/01/20 06:13:37;;;;;;;23.40;14.17;;;;;;;;;;5114279;28;20714;-81
2024/01/20 06:16:06;;;;;;;23.87;14.37;;;;;;;;;;5114785;28;20193;-80
2024/01/20 06:18:33;;;;;;;26.93;14.37;;;;;;;;;;5113639;28;20566;-81
2024/01/20 06:21:00;;;;;;;24.50;14.73;;;;;;;;;;5113884;28;20258;-80
2024/01/20 06:23:29;;;;;;;22.63;15.40;;;;;;;;;;5114295;28;20649;-81
2024/01/20 06:25:58;;;;;;;23.17;15.37;;;;;;;;;;5113848;27;20204;-80
2024/01/20 06:28:25;;;;;;;23.50;15.30;;;;;;;;;;5113941;28;20194;-81
2024/01/20 06:30:53;;;;;;;27.40;16.83;;;;;;;;;;5114221;28;20251;-80
2024/01/20 06:33:20;;;;;;;24.30;17.27;;;;;;;;;;5113771;28;20577;-80
2024/01/20 06:35:47;;;;;;;24.90;15.60;;;;;;;;;;5113869;28;20213;-80
2024/01/20 06:38:15;;;;;;;24.30;15.97;;;;;;;;;;5113805;28;20288;-80
2024/01/20 06:40:44;;;;;;;27.63;16.03;;;;;;;;;;5113701;28;20197;-80
2024/01/20 06:43:11;;;;;;;31.03;17.20;;;;;;;;;;5113403;28;20599;-80
2024/01/20 06:45:38;;;;;;;35.10;19.07;;;;;;;;;;5113523;28;20265;-81
2024/01/20 06:48:06;;;;;;;37.87;20.40;;;;;;;;;;5113581;28;20643;-81
2024/01/20 06:50:32;;;;;;;33.17;18.87;;;;;;;;;;5113436;28;20221;-81
2024/01/20 06:52:59;;;;;;;40.10;20.73;;;;;;;;;;5113150;28;20203;-81
2024/01/20 06:55:26;;;;;;;35.33;20.23;;;;;;;;;;5113160;28;20200;-81
2024/01/20 06:57:55;;;;;;;34.33;19.30;;;;;;;;;;5113812;28;20198;-81
2024/01/20 07:00:23;;;;;;;28.37;17.70;;;;;;;;;;5113428;28;20285;-81
2024/01/20 07:02:50;;;;;;;33.97;18.97;;;;;;;;;;5112802;28;20658;-80
2024/01/20 07:05:18;;;;;;;32.43;18.80;;;;;;;;;;5112409;28;20237;-81
2024/01/20 07:07:45;;;;;;;30.30;17.90;;;;;;;;;;5112998;28;20658;-80
2024/01/20 07:10:12;;;;;;;29.20;17.43;;;;;;;;;;5113112;28;20200;-81
2024/01/20 07:12:40;;;;;;;35.40;20.07;;;;;;;;;;5113233;28;20793;-82
2024/01/20 07:15:09;;;;;;;32.73;18.33;;;;;;;;;;5113205;28;20197;-81
2024/01/20 07:17:36;;;;;;;32.70;19.33;;;;;;;;;;5112360;28;20189;-81
2024/01/20 07:20:04;;;;;;;33.67;18.90;;;;;;;;;;5113189;28;20225;-81
2024/01/20 07:22:31;;;;;;;38.93;21.53;;;;;;;;;;5112628;27;20200;-81
2024/01/20 07:24:59;;;;;;;37.10;22.07;;;;;;;;;;5113522;28;20225;-81
2024/01/20 07:27:26;;;;;;;40.33;21.87;;;;;;;;;;5113287;28;20197;-79
2024/01/20 07:29:53;;;;;;;36.17;21.07;;;;;;;;;;5113286;28;20297;-81
2024/01/20 07:32:21;;;;;;;37.20;20.10;;;;;;;;;;5112716;28;20190;-79
2024/01/20 07:34:49;;;;;;;38.27;19.93;;;;;;;;;;5112702;28;20286;-81
2024/01/20 07:37:16;;;;;;;40.93;20.67;;;;;;;;;;5112687;28;20202;-80
2024/01/20 07:39:43;;;;;;;40.73;20.87;;;;;;;;;;5113348;28;20225;-80
2024/01/20 07:42:10;;;;;;;43.73;22.83;;;;;;;;;;5111969;28;20272;-80
2024/01/20 07:44:37;;;;;;;40.63;21.90;;;;;;;;;;5110925;28;20230;-81
2024/01/20 07:47:04;;;;;;;42.70;22.40;;;;;;;;;;5112427;28;20237;-81
2024/01/20 07:49:33;;;;;;;41.00;20.33;;;;;;;;;;5112743;28;20212;-81
2024/01/20 07:52:00;;;;;;;40.13;21.57;;;;;;;;;;5112048;28;20286;-80
2024/01/20 07:54:27;;;;;;;41.00;21.37;;;;;;;;;;5112174;28;20249;-81
2024/01/20 07:56:55;;;;;;;41.27;21.60;;;;;;;;;;5113401;28;20201;-82
2024/01/20 07:59:22;;;;;;;38.03;20.13;;;;;;;;;;5112003;28;20201;-77
2024/01/20 08:01:49;;;;;;;41.30;21.13;;;;;;;;;;5113113;28;20736;-85
2024/01/20 08:04:17;;;;;;;42.30;20.97;;;;;;;;;;5113630;28;20309;-87
2024/01/20 08:06:46;;;;;;;41.97;20.40;;;;;;;;;;5113704;28;20194;-86
2024/01/20 08:09:13;;;;;;;42.60;19.87;;;;;;;;;;5113434;28;20218;-87
2024/01/20 08:11:41;;;;;;;43.63;19.73;;;;;;;;;;5113429;28;20194;-85
2024/01/20 08:14:08;;;;;;;45.43;21.07;;;;;;;;;;5112952;28;20279;-86
2024/01/20 08:16:35;;;;;;;48.63;20.23;;;;;;;;;;5113780;28;20193;-86
2024/01/20 08:19:02;;;;;;;42.57;19.93;;;;;;;;;;5113463;28;20201;-86
2024/01/20 08:21:30;;;;;;;45.93;19.07;;;;;;;;;;5113838;28;20285;-88
2024/01/20 08:23:58;;;;;;;42.77;19.60;;;;;;;;;;5112983;28;20284;-81
2024/01/20 08:26:25;;;;;;;44.93;19.50;;;;;;;;;;5111341;28;20881;-80
2024/01/20 08:28:53;;;;;;;45.17;17.83;;;;;;;;;;5111982;28;20279;-81
2024/01/20 08:31:20;;;;;;;42.27;17.50;;;;;;;;;;5111779;28;20716;-81
2024/01/20 08:33:47;;;;;;;45.87;18.17;;;;;;;;;;5111553;28;20194;-81
2024/01/20 08:36:14;;;;;;;47.10;17.73;;;;;;;;;;5111781;28;20291;-81
2024/01/20 08:38:41;;;;;;;46.50;18.43;;;;;;;;;;5111366;28;20282;-81
2024/01/20 08:41:11;;;;;;;48.63;18.87;;;;;;;;;;5112197;28;20291;-80
2024/01/20 08:43:39;;;;;;;46.50;18.63;;;;;;;;;;5111277;28;20193;-80
2024/01/20 08:46:07;;;;;;;48.37;20.07;;;;;;;;;;5111462;28;20261;-82
2024/01/20 08:48:36;;;;;;;49.67;19.13;;;;;;;;;;5111748;28;20284;-81
2024/01/20 08:51:03;;;;;;;50.90;20.37;;;;;;;;;;5111515;28;20196;-82
2024/01/20 08:53:32;;;;;;;46.40;18.90;;;;;;;;;;5111731;28;20201;-81
2024/01/20 08:55:59;;;;;;;45.60;19.10;;;;;;;;;;5111412;28;20198;-82
2024/01/20 08:58:28;;;;;;;43.07;17.53;;;;;;;;;;5111246;28;20223;-82
2024/01/20 09:00:55;;;;;;;45.57;18.10;;;;;;;;;;5111663;28;20199;-82
2024/01/20 09:03:22;;;;;;;43.90;18.00;;;;;;;;;;5109441;28;20549;-82
2024/01/20 09:05:50;;;;;;;43.23;19.00;;;;;;;;;;5110309;28;20923;-82
2024/01/20 09:08:17;;;;;;;48.57;18.57;;;;;;;;;;5107468;28;20279;-81
2024/01/20 09:10:44;;;;;;;44.13;18.50;;;;;;;;;;5108219;28;20253;-82
2024/01/20 09:13:11;;;;;;;43.57;18.10;;;;;;;;;;4738200;28;10000140;-81
2024/01/20 09:15:40;;;;;;;41.90;17.63;;;;;;;;;;5087952;28;20449;-83
2024/01/20 09:18:07;;;;;;;45.10;18.77;;;;;;;;;;5087843;28;20594;-83
2024/01/20 09:20:35;;;;;;;46.67;19.37;;;;;;;;;;5087638;28;20209;-81
2024/01/20 09:23:02;;;;;;;45.97;19.40;;;;;;;;;;5088306;28;20200;-84
2024/01/20 09:25:29;;;;;;;43.87;19.07;;;;;;;;;;5088006;28;20342;-84
2024/01/20 09:27:57;;;;;;;44.23;18.83;;;;;;;;;;5092500;28;20288;-85
2024/01/20 09:30:24;;;;;;;38.33;18.83;;;;;;;;;;5083347;27;20203;-84
2024/01/20 09:32:53;;;;;;;38.33;17.53;;;;;;;;;;5116741;27;20205;-86
2024/01/20 09:35:20;;;;;;;39.00;18.07;;;;;;;;;;5115434;28;20201;-86
2024/01/20 09:37:47;;;;;;;33.80;16.53;;;;;;;;;;5115678;28;20310;-84
2024/01/20 09:40:16;;;;;;;32.47;16.90;;;;;;;;;;5125366;27;20199;-84
2024/01/20 09:42:43;;;;;;;29.53;16.30;;;;;;;;;;5112332;28;20197;-85
2024/01/20 09:45:11;;;;;;;29.00;17.27;;;;;;;;;;5115413;28;20281;-86
2024/01/20 09:47:39;;;;;;;29.97;17.30;;;;;;;;;;5116002;28;20285;-86
2024/01/20 09:50:08;;;;;;;28.90;17.60;;;;;;;;;;5115121;28;20737;-86
2024/01/20 09:52:42;;;;;;;33.63;17.97;;;;;;;;;;5115599;28;20675;-85
2024/01/20 09:55:16;;;;;;;32.60;18.10;;;;;;;;;;5115822;28;20638;-86
2024/01/20 09:57:43;;;;;;;27.83;16.07;;;;;;;;;;5117041;27;20193;-87
2024/01/20 10:00:12;;;;;;;25.60;15.20;;;;;;;;;;5115619;28;20192;-86
2024/01/20 10:02:39;;;;;;;28.27;16.80;;;;;;;;;;5113736;27;20211;-86
2024/01/20 10:05:10;;;;;;;25.50;15.20;;;;;;;;;;5114564;28;20588;-86
2024/01/20 10:07:37;;;;;;;24.73;15.03;;;;;;;;;;5116663;27;20219;-86
2024/01/20 10:10:05;;;;;;;25.23;14.60;;;;;;;;;;5116411;27;20285;-85
2024/01/20 10:12:32;;;;;;;26.03;15.13;;;;;;;;;;5115601;28;20253;-86
2024/01/20 10:15:00;;;;;;;27.47;15.77;;;;;;;;;;5114348;28;20336;-85
2024/01/20 10:17:27;;;;;;;24.87;15.13;;;;;;;;;;5115062;28;20193;-86
2024/01/20 10:19:54;;;;;;;26.77;15.77;;;;;;;;;;5115393;28;20228;-85
2024/01/20 10:22:23;;;;;;;28.20;15.80;;;;;;;;;;5115270;28;20237;-86
2024/01/20 10:24:50;;;;;;;25.83;15.60;;;;;;;;;;5114574;28;20235;-85
2024/01/20 10:27:18;;;;;;;26.07;15.63;;;;;;;;;;5123070;27;20299;-86
2024/01/20 10:29:46;;;;;;;24.03;14.00;;;;;;;;;;5114693;28;20205;-86
2024/01/20 10:32:14;;;;;;;21.57;13.07;;;;;;;;;;5115198;28;20228;-86
2024/01/20 10:34:41;;;;;;;21.27;13.47;;;;;;;;;;5114694;28;20208;-85
2024/01/20 10:37:11;;;;;;;20.33;13.70;;;;;;;;;;5113833;27;20262;-87
2024/01/20 10:39:42;;;;;;;19.67;12.90;;;;;;;;;;5121774;27;20563;-87
2024/01/20 10:42:12;;;;;;;20.47;13.50;;;;;;;;;;5115587;27;20208;-87
2024/01/20 10:44:40;;;;;;;20.50;13.47;;;;;;;;;;5116552;27;20665;-91
2024/01/20 10:47:13;;;;;;;21.87;13.83;;;;;;;;;;5127966;27;20309;-90
2024/01/20 10:49:45;;;;;;;20.63;13.53;;;;;;;;;;5118294;27;20667;-91
2024/01/20 10:52:13;;;;;;;20.10;13.43;;;;;;;;;;5116128;28;20186;-91
2024/01/20 10:54:43;;;;;;;20.67;13.70;;;;;;;;;;5126521;27;20197;-86
2024/01/20 10:57:10;;;;;;;18.87;12.67;;;;;;;;;;5127772;27;20212;-86
2024/01/20 10:59:40;;;;;;;18.77;12.10;;;;;;;;;;5125063;27;20281;-86
2024/01/20 11:02:08;;;;;;;15.90;10.80;;;;;;;;;;5116601;27;20202;-87
2024/01/20 11:04:37;;;;;;;15.33;10.90;;;;;;;;;;5114245;28;20343;-87
2024/01/20 11:07:05;;;;;;;16.03;11.03;;;;;;;;;;5115056;28;20237;-89
2024/01/20 11:09:32;;;;;;;15.83;10.97;;;;;;;;;;5115720;28;21037;-89
2024/01/20 11:12:01;;;;;;;16.30;10.63;;;;;;;;;;5096477;28;20305;-87
2024/01/20 11:14:32;;;;;;;15.80;11.00;;;;;;;;;;5114026;28;20291;-88
2024/01/20 11:17:01;;;;;;;14.67;9.57;;;;;;;;;;5109286;28;20613;-90
2024/01/20 11:19:31;;;;;;;14.37;10.23;;;;;;;;;;5094872;28;20572;-94
2024/01/20 11:21:58;;;;;;;16.97;10.20;;;;;;;;;;5101116;28;20562;-83
2024/01/20 11:24:38;;;;;;;14.93;10.77;;;;;;;;;;5118465;28;20228;-88
2024/01/20 11:27:08;;;;;;;14.33;9.90;;;;;;;;;;5114723;28;20242;-89
2024/01/20 11:29:35;;;;;;;14.63;9.50;;;;;;;;;;5114853;28;20633;-89
2024/01/20 11:32:02;;;;;;;16.43;10.43;;;;;;;;;;5114619;28;20281;-90
2024/01/20 11:34:30;;;;;;;15.33;9.73;;;;;;;;;;5114311;28;20219;-91
2024/01/20 11:37:00;;;;;;;15.37;9.63;;;;;;;;;;5113237;28;20214;-90
2024/01/20 11:39:28;;;;;;;13.97;10.10;;;;;;;;;;5094746;28;20199;-89
2024/01/20 11:42:02;;;;;;;14.80;9.83;;;;;;;;;;5094579;28;20195;-92
2024/01/20 11:44:32;;;;;;;15.73;9.53;;;;;;;;;;5111545;28;20571;-92
2024/01/20 11:46:59;;;;;;;16.20;10.03;;;;;;;;;;5121504;27;20581;-92
2024/01/20 11:49:27;;;;;;;12.67;8.67;;;;;;;;;;5135621;27;20569;-93
2024/01/20 11:51:54;;;;;;;13.73;8.80;;;;;;;;;;5135161;27;20277;-91
2024/01/20 11:54:22;;;;;;;14.40;9.67;;;;;;;;;;5135011;27;20573;-92
2024/01/20 11:56:57;;;;;;;14.47;9.20;;;;;;;;;;5114481;28;20280;-89
2024/01/20 11:59:24;;;;;;;14.73;9.67;;;;;;;;;;5114581;28;20202;-88
2024/01/20 12:01:53;;;;;;;15.10;10.43;;;;;;;;;;5115599;28;20669;-92
2024/01/20 12:04:21;;;;;;;13.87;9.90;;;;;;;;;;5118780;28;20228;-91
2024/01/20 12:06:48;;;;;;;15.00;9.50;;;;;;;;;;5103014;28;20258;-93
2024/01/20 12:09:15;;;;;;;14.17;9.40;;;;;;;;;;5099466;28;20217;-92
2024/01/20 12:11:42;;;;;;;13.93;9.33;;;;;;;;;;5097059;28;20209;-92
2024/01/20 12:14:10;;;;;;;14.97;9.80;;;;;;;;;;5095344;28;20224;-92
2024/01/20 12:16:38;;;;;;;15.90;10.50;;;;;;;;;;5094276;28;20206;-93
2024/01/20 12:19:07;;;;;;;14.37;9.80;;;;;;;;;;5094532;28;20202;-93
2024/01/20 12:21:34;;;;;;;14.17;9.20;;;;;;;;;;5093939;28;20202;-88
2024/01/20 12:24:02;;;;;;;12.37;9.27;;;;;;;;;;5093158;28;20244;-86
2024/01/20 12:26:29;;;;;;;15.00;10.53;;;;;;;;;;5101103;28;20230;-89
2024/01/20 12:28:57;;;;;;;15.23;10.63;;;;;;;;;;5103163;27;20714;-86
2024/01/20 12:31:25;;;;;;;13.70;9.57;;;;;;;;;;5112070;27;20217;-89
2024/01/20 12:33:53;;;;;;;15.47;9.97;;;;;;;;;;5114064;28;20725;-89
2024/01/20 12:36:22;;;;;;;13.53;9.13;;;;;;;;;;5112692;28;20286;-88
2024/01/20 12:38:49;;;;;;;14.47;9.30;;;;;;;;;;5113967;28;20194;-89
2024/01/20 12:41:16;;;;;;;12.43;8.97;;;;;;;;;;5113860;28;20207;-88
2024/01/20 12:43:47;;;;;;;12.90;8.50;;;;;;;;;;5113826;28;20189;-88
2024/01/20 12:46:14;;;;;;;15.60;10.10;;;;;;;;;;5113369;28;20639;-89
2024/01/20 12:48:41;;;;;;;16.37;11.30;;;;;;;;;;5114500;28;20220;-90
2024/01/20 12:51:09;;;;;;;14.43;9.67;;;;;;;;;;5113708;28;20182;-90
2024/01/20 12:53:37;;;;;;;13.03;9.47;;;;;;;;;;5112233;28;20228;-89
2024/01/20 12:56:05;;;;;;;16.53;10.80;;;;;;;;;;5094656;28;20679;-89
2024/01/20 12:58:33;;;;;;;14.00;9.07;;;;;;;;;;5094900;28;20235;-89
2024/01/20 13:01:00;;;;;;;15.20;10.07;;;;;;;;;;5095112;28;20243;-91
2024/01/20 13:03:28;;;;;;;14.30;9.47;;;;;;;;;;5107591;27;20209;-88
2024/01/20 13:05:55;;;;;;;18.10;11.87;;;;;;;;;;5125591;28;20225;-90
2024/01/20 13:08:22;;;;;;;13.30;10.60;;;;;;;;;;5105914;28;20218;-90
2024/01/20 13:10:51;;;;;;;16.10;11.47;;;;;;;;;;5116667;28;20723;-88
2024/01/20 13:13:21;;;;;;;14.87;10.33;;;;;;;;;;5116385;28;20322;-89
2024/01/20 13:15:48;;;;;;;14.77;10.53;;;;;;;;;;5117163;28;20269;-86
2024/01/20 13:18:16;;;;;;;14.83;9.93;;;;;;;;;;5116688;28;20511;-87
2024/01/20 13:20:43;;;;;;;14.10;9.80;;;;;;;;;;5105902;28;20206;-90
2024/01/20 13:23:10;;;;;;;14.03;9.47;;;;;;;;;;5098894;28;20238;-91
2024/01/20 13:25:39;;;;;;;15.13;9.70;;;;;;;;;;5099006;28;20196;-90
2024/01/20 13:28:13;;;;;;;15.73;10.20;;;;;;;;;;5098761;28;20325;-91
2024/01/20 13:30:40;;;;;;;15.43;10.70;;;;;;;;;;5098630;28;20204;-90
2024/01/20 13:33:07;;;;;;;15.67;11.07;;;;;;;;;;5097954;28;20200;-91
2024/01/20 13:35:34;;;;;;;16.10;11.00;;;;;;;;;;5099081;28;20288;-92
2024/01/20 13:38:02;;;;;;;14.77;9.80;;;;;;;;;;5098217;28;20217;-91
2024/01/20 13:40:29;;;;;;;15.10;10.10;;;;;;;;;;5097544;28;20196;-91
2024/01/20 13:42:56;;;;;;;16.17;10.70;;;;;;;;;;5097218;28;20288;-92
2024/01/20 13:45:25;;;;;;;14.13;10.13;;;;;;;;;;5097403;28;20210;-91
2024/01/20 13:47:52;;;;;;;14.47;9.57;;;;;;;;;;5096885;28;20265;-91
2024/01/20 13:50:19;;;;;;;14.37;10.07;;;;;;;;;;5097432;28;20275;-91
2024/01/20 13:52:47;;;;;;;15.27;9.40;;;;;;;;;;5097552;28;20597;-91
2024/01/20 13:55:15;;;;;;;13.47;9.03;;;;;;;;;;5097160;28;20567;-90
2024/01/20 13:57:42;;;;;;;14.20;9.47;;;;;;;;;;5097162;28;20187;-90
2024/01/20 14:00:11;;;;;;;14.83;10.20;;;;;;;;;;5097065;28;20194;-91
2024/01/20 14:02:40;;;;;;;15.30;10.23;;;;;;;;;;5095825;28;20680;-92
2024/01/20 14:05:08;;;;;;;16.23;10.50;;;;;;;;;;5098265;28;20194;-91
2024/01/20 14:07:35;;;;;;;16.17;10.13;;;;;;;;;;5098502;28;20228;-92
2024/01/20 14:10:02;;;;;;;12.77;9.13;;;;;;;;;;5099364;28;20589;-92
2024/01/20 14:12:29;;;;;;;16.03;10.53;;;;;;;;;;5098343;28;20318;-92
2024/01/20 14:14:57;;;;;;;16.40;10.60;;;;;;;;;;5097423;28;20261;-93
2024/01/20 14:17:27;;;;;;;16.13;9.90;;;;;;;;;;5096673;28;20286;-93
2024/01/20 14:19:56;;;;;;;14.53;10.00;;;;;;;;;;5096700;28;20186;-93
2024/01/20 14:22:23;;;;;;;14.53;9.50;;;;;;;;;;5096515;28;20284;-93